createdAt,value
2022-10-04T00:02:26.644Z,1.90
2022-10-04T00:05:01.204Z,1.27
2022-10-04T00:07:31.626Z,1.50
2022-10-04T00:10:03.186Z,1.70
2022-10-04T00:12:35.892Z,2.10
2022-10-04T00:15:06.186Z,1.70
2022-10-04T00:17:36.486Z,1.53
2022-10-04T00:20:24.906Z,1.83
2022-10-04T00:23:28.590Z,1.60
2022-10-04T00:26:00.453Z,1.40
2022-10-04T00:28:40.059Z,1.33
2022-10-04T00:31:21.271Z,2.10
2022-10-04T00:33:53.014Z,1.53
2022-10-04T00:36:54.322Z,1.73
2022-10-04T00:39:40.142Z,1.30
2022-10-04T00:42:42.842Z,1.40
2022-10-04T00:45:21.546Z,1.73
2022-10-04T00:48:04.628Z,1.87
2022-10-04T00:50:37.150Z,1.93
2022-10-04T00:53:16.959Z,1.63
2022-10-04T00:55:51.160Z,1.77
2022-10-04T00:58:24.004Z,1.63
2022-10-04T01:00:55.213Z,1.77
2022-10-04T01:03:28.895Z,1.60
2022-10-04T01:06:01.246Z,1.70
2022-10-04T01:08:33.284Z,1.77
2022-10-04T01:11:04.784Z,1.87
2022-10-04T01:13:39.461Z,1.60
2022-10-04T01:16:16.219Z,1.97
2022-10-04T01:18:44.404Z,1.70
2022-10-04T01:21:27.314Z,1.53
2022-10-04T01:24:17.404Z,1.93
2022-10-04T01:26:46.305Z,1.60
2022-10-04T01:29:17.003Z,1.40
2022-10-04T01:31:46.827Z,1.63
2022-10-04T01:34:16.925Z,2.07
2022-10-04T01:36:46.065Z,1.77
2022-10-04T01:39:16.489Z,1.83
2022-10-04T01:41:49.025Z,1.40
2022-10-04T01:44:27.870Z,1.60
2022-10-04T01:46:59.425Z,1.50
2022-10-04T01:49:32.342Z,1.90
2022-10-04T01:52:04.332Z,1.87
2022-10-04T01:54:35.617Z,2.10
2022-10-04T01:57:08.631Z,1.80
2022-10-04T01:59:49.158Z,1.67
2022-10-04T02:02:26.236Z,1.87
2022-10-04T02:04:56.769Z,1.93
2022-10-04T02:07:26.493Z,1.93
2022-10-04T02:10:00.498Z,1.80
2022-10-04T02:12:31.334Z,2.03
2022-10-04T02:15:01.857Z,1.80
2022-10-04T02:17:32.875Z,1.70
2022-10-04T02:20:02.367Z,1.80
2022-10-04T02:22:30.889Z,2.00
2022-10-04T02:25:00.340Z,1.97
2022-10-04T02:27:29.989Z,1.90
2022-10-04T02:30:01.774Z,1.87
2022-10-04T02:32:49.615Z,2.10
2022-10-04T02:35:18.365Z,1.93
2022-10-04T02:37:47.175Z,1.90
2022-10-04T02:40:21.577Z,1.70
2022-10-04T02:42:57.410Z,1.93
2022-10-04T02:45:32.799Z,1.70
2022-10-04T02:48:07.275Z,1.93
2022-10-04T02:50:39.973Z,1.80
2022-10-04T02:53:16.961Z,2.20
2022-10-04T02:55:47.693Z,1.87
2022-10-04T02:58:26.374Z,1.40
2022-10-04T03:00:57.860Z,1.83
2022-10-04T03:03:28.622Z,2.00
2022-10-04T03:06:01.807Z,1.70
2022-10-04T03:08:33.039Z,1.87
2022-10-04T03:11:05.001Z,2.03
2022-10-04T03:13:34.443Z,1.90
2022-10-04T03:16:02.655Z,1.70
2022-10-04T03:18:30.925Z,1.90
2022-10-04T03:20:59.386Z,1.90
2022-10-04T03:23:27.175Z,1.87
2022-10-04T03:26:01.450Z,2.00
2022-10-04T03:28:31.198Z,1.80
2022-10-04T03:30:59.280Z,1.70
2022-10-04T03:33:29.286Z,1.77
2022-10-04T03:36:00.533Z,1.87
2022-10-04T03:38:29.734Z,2.03
2022-10-04T03:40:59.663Z,2.03
2022-10-04T03:43:32.398Z,1.90
2022-10-04T03:46:01.907Z,1.90
2022-10-04T03:48:33.268Z,2.27
2022-10-04T03:51:03.002Z,2.23
2022-10-04T03:53:37.637Z,2.00
2022-10-04T03:56:13.236Z,1.90
2022-10-04T03:58:42.789Z,2.07
2022-10-04T04:01:31.754Z,2.00
2022-10-04T04:04:06.204Z,1.67
2022-10-04T04:06:41.377Z,1.83
2022-10-04T04:09:17.811Z,2.63
2022-10-04T04:11:49.474Z,1.80
2022-10-04T04:14:24.457Z,1.93
2022-10-04T04:16:53.617Z,1.77
2022-10-04T04:19:24.731Z,2.70
2022-10-04T04:21:56.254Z,2.00
2022-10-04T04:24:28.225Z,1.97
2022-10-04T04:26:59.497Z,1.77
2022-10-04T04:29:34.804Z,1.97
2022-10-04T04:32:06.196Z,1.60
2022-10-04T04:34:45.633Z,1.73
2022-10-04T04:37:13.400Z,2.50
2022-10-04T04:39:42.572Z,2.50
2022-10-04T04:42:17.296Z,2.23
2022-10-04T04:44:52.100Z,1.93
2022-10-04T04:47:33.216Z,1.93
2022-10-04T04:50:08.258Z,1.93
2022-10-04T04:52:37.259Z,2.23
2022-10-04T04:55:06.395Z,1.80
2022-10-04T04:57:34.887Z,1.73
2022-10-04T05:00:04.770Z,2.10
2022-10-04T05:02:35.654Z,2.37
2022-10-04T05:05:25.073Z,1.60
2022-10-04T05:08:10.514Z,2.77
2022-10-04T05:10:40.637Z,1.80
2022-10-04T05:13:12.021Z,2.23
2022-10-04T05:15:42.783Z,2.17
2022-10-04T05:18:17.727Z,2.10
2022-10-04T05:20:50.403Z,2.10
2022-10-04T05:23:18.413Z,1.90
2022-10-04T05:25:46.467Z,2.20
2022-10-04T05:28:15.203Z,2.40
2022-10-04T05:30:52.162Z,2.30
2022-10-04T05:33:25.377Z,2.43
2022-10-04T05:36:25.475Z,2.30
2022-10-04T05:39:03.495Z,2.67
2022-10-04T05:41:41.324Z,2.17
2022-10-04T05:44:23.921Z,2.27
2022-10-04T05:46:54.201Z,2.47
2022-10-04T05:49:24.076Z,2.47
2022-10-04T05:51:55.349Z,2.60
2022-10-04T05:54:25.090Z,2.40
2022-10-04T05:57:20.843Z,2.30
2022-10-04T06:00:04.348Z,3.00
2022-10-04T06:02:48.671Z,2.57
2022-10-04T06:05:25.675Z,2.40
2022-10-04T06:08:02.020Z,2.30
2022-10-04T06:10:47.779Z,2.60
2022-10-04T06:13:32.655Z,2.60
2022-10-04T06:16:20.101Z,2.40
2022-10-04T06:19:14.852Z,2.50
2022-10-04T06:21:57.536Z,2.20
2022-10-04T06:24:28.534Z,2.03
2022-10-04T06:27:03.657Z,2.73
2022-10-04T06:29:36.675Z,2.77
2022-10-04T06:32:26.520Z,2.20
2022-10-04T06:35:31.698Z,2.50
2022-10-04T06:38:35.064Z,2.40
2022-10-04T06:41:15.778Z,2.20
2022-10-04T06:43:56.732Z,2.27
2022-10-04T06:46:32.242Z,2.60
2022-10-04T06:49:18.376Z,2.40
2022-10-04T06:52:26.772Z,2.67
2022-10-04T06:55:14.945Z,2.23
2022-10-04T06:58:08.456Z,2.67
2022-10-04T07:00:41.159Z,2.73
2022-10-04T07:03:16.071Z,2.93
2022-10-04T07:05:48.735Z,2.60
2022-10-04T07:08:31.518Z,2.73
2022-10-04T07:11:05.818Z,2.63
2022-10-04T07:13:45.655Z,2.87
2022-10-04T07:16:28.781Z,3.20
2022-10-04T07:19:08.374Z,2.50
2022-10-04T07:21:41.443Z,2.90
2022-10-04T07:24:13.463Z,2.33
2022-10-04T07:26:47.713Z,2.80
2022-10-04T07:29:22.368Z,2.80
2022-10-04T07:31:54.648Z,3.60
2022-10-04T07:34:26.519Z,2.70
2022-10-04T07:36:56.315Z,2.83
2022-10-04T07:39:28.995Z,2.43
2022-10-04T07:42:01.430Z,3.47
2022-10-04T07:44:37.154Z,2.70
2022-10-04T07:47:16.436Z,2.63
2022-10-04T07:49:44.289Z,2.90
2022-10-04T07:52:41.833Z,3.13
2022-10-04T07:55:24.603Z,2.33
2022-10-04T07:58:07.936Z,2.67
2022-10-04T08:00:48.621Z,2.70
2022-10-04T08:03:32.073Z,2.87
2022-10-04T08:06:11.882Z,3.03
2022-10-04T08:09:03.121Z,2.60
2022-10-04T08:11:42.552Z,2.57
2022-10-04T08:14:26.768Z,2.50
2022-10-04T08:17:03.294Z,2.70
2022-10-04T08:19:43.744Z,2.40
2022-10-04T08:22:23.239Z,2.63
2022-10-04T08:25:02.243Z,2.43
2022-10-04T08:27:40.146Z,3.20
2022-10-04T08:30:13.699Z,2.50
2022-10-04T08:32:55.897Z,2.87
2022-10-04T08:35:34.232Z,2.63
2022-10-04T08:38:17.869Z,2.27
2022-10-04T08:41:18.473Z,2.70
2022-10-04T08:44:18.739Z,2.70
2022-10-04T08:47:18.728Z,2.30
2022-10-04T08:50:22.779Z,2.20
2022-10-04T08:53:11.077Z,2.17
2022-10-04T08:56:11.468Z,2.60
2022-10-04T08:59:07.586Z,2.60
2022-10-04T09:02:06.333Z,2.30
2022-10-04T09:04:59.581Z,2.50
2022-10-04T09:08:12.017Z,2.20
2022-10-04T09:10:51.753Z,2.23
2022-10-04T09:13:34.112Z,2.20
2022-10-04T09:16:16.395Z,2.60
2022-10-04T09:18:54.026Z,2.63
2022-10-04T09:21:35.224Z,2.73
2022-10-04T09:24:35.175Z,2.30
2022-10-04T09:27:36.784Z,2.70
2022-10-04T09:30:17.515Z,3.10
2022-10-04T09:33:02.362Z,2.97
2022-10-04T09:35:53.662Z,3.03
2022-10-04T09:38:43.488Z,2.87
2022-10-04T09:41:32.449Z,2.60
2022-10-04T09:44:52.524Z,3.10
2022-10-04T09:47:31.983Z,2.63
2022-10-04T09:50:26.572Z,2.40
2022-10-04T09:53:07.045Z,2.57
2022-10-04T09:56:05.365Z,2.90
2022-10-04T09:58:51.232Z,2.73
2022-10-04T10:01:29.422Z,2.80
2022-10-04T10:04:37.006Z,2.93
2022-10-04T10:07:30.594Z,3.13
2022-10-04T10:10:27.401Z,3.50
2022-10-04T10:13:43.970Z,2.40
2022-10-04T10:16:29.683Z,2.53
2022-10-04T10:19:13.322Z,2.53
2022-10-04T10:21:52.591Z,1.97
2022-10-04T10:24:34.160Z,2.50
2022-10-04T10:27:21.726Z,2.27
2022-10-04T10:30:07.185Z,2.63
2022-10-04T10:32:53.803Z,2.43
2022-10-04T10:35:46.571Z,2.33
2022-10-04T10:38:35.541Z,2.57
2022-10-04T10:41:32.192Z,2.00
2022-10-04T10:44:23.677Z,2.13
2022-10-04T10:47:19.448Z,2.13
2022-10-04T10:50:07.023Z,2.73
2022-10-04T10:53:14.864Z,1.83
2022-10-04T10:56:19.770Z,2.20
2022-10-04T10:59:05.417Z,2.50
2022-10-04T11:01:54.532Z,2.00
2022-10-04T11:04:54.714Z,2.00
2022-10-04T11:07:42.080Z,1.83
2022-10-04T11:10:43.415Z,2.10
2022-10-04T11:13:34.991Z,2.60
2022-10-04T11:16:40.502Z,2.17
2022-10-04T11:19:46.129Z,2.30
2022-10-04T11:22:53.313Z,2.50
2022-10-04T11:25:47.133Z,2.57
2022-10-04T11:28:22.625Z,2.20
2022-10-04T11:31:26.437Z,2.23
2022-10-04T11:34:19.898Z,2.30
2022-10-04T11:37:03.152Z,2.40
2022-10-04T11:40:00.929Z,2.30
2022-10-04T11:42:43.970Z,2.03
2022-10-04T11:45:36.214Z,1.70
2022-10-04T11:48:21.599Z,1.73
2022-10-04T11:51:09.131Z,2.27
2022-10-04T11:54:07.903Z,2.13
2022-10-04T11:56:48.262Z,2.30
2022-10-04T11:59:31.102Z,2.60
2022-10-04T12:02:33.496Z,2.40
2022-10-04T12:05:38.431Z,2.40
2022-10-04T12:08:33.954Z,2.33
2022-10-04T12:11:59.215Z,1.83
2022-10-04T12:14:42.115Z,2.10
2022-10-04T12:17:59.027Z,2.37
2022-10-04T12:20:43.207Z,2.13
2022-10-04T12:23:32.059Z,2.40
2022-10-04T12:26:19.085Z,2.20
2022-10-04T12:29:27.615Z,2.00
2022-10-04T12:31:59.768Z,2.37
2022-10-04T12:34:36.338Z,2.27
2022-10-04T12:37:28.688Z,2.40
2022-10-04T12:40:18.991Z,2.43
2022-10-04T12:42:56.292Z,2.20
2022-10-04T12:45:43.394Z,2.47
2022-10-04T12:48:28.531Z,1.97
2022-10-04T12:51:05.719Z,2.67
2022-10-04T12:53:47.801Z,2.33
2022-10-04T12:56:29.793Z,2.40
2022-10-04T12:59:27.294Z,2.70
2022-10-04T13:02:06.866Z,2.40
2022-10-04T13:04:40.258Z,2.33
2022-10-04T13:07:25.737Z,2.27
2022-10-04T13:10:26.527Z,2.73
2022-10-04T13:13:33.267Z,2.60
2022-10-04T13:19:11.135Z,2.40
2022-10-04T13:22:37.895Z,2.33
2022-10-04T13:25:27.956Z,2.40
2022-10-04T13:28:02.835Z,2.70
2022-10-04T13:30:37.209Z,2.17
2022-10-04T13:33:19.466Z,2.50
2022-10-04T13:35:52.570Z,2.40
2022-10-04T13:38:57.018Z,2.53
2022-10-04T13:41:40.478Z,3.27
2022-10-04T13:44:22.155Z,2.70
2022-10-04T13:47:07.040Z,2.37
2022-10-04T13:49:52.618Z,2.90
2022-10-04T13:52:58.874Z,2.10
2022-10-04T13:55:54.278Z,2.50
2022-10-04T13:58:42.448Z,2.20
2022-10-04T14:01:40.834Z,2.03
2022-10-04T14:04:24.901Z,2.60
2022-10-04T14:07:30.810Z,2.47
2022-10-04T14:10:34.239Z,2.97
2022-10-04T14:13:48.791Z,2.40
2022-10-04T14:16:51.774Z,2.40
2022-10-04T14:19:58.221Z,2.10
2022-10-04T14:23:00.884Z,3.80
2022-10-04T14:26:00.704Z,2.27
2022-10-04T14:29:15.060Z,2.50
2022-10-04T14:32:14.213Z,2.57
2022-10-04T14:34:58.196Z,2.50
2022-10-04T14:38:07.759Z,2.47
2022-10-04T14:41:11.078Z,2.60
2022-10-04T14:44:10.372Z,2.50
2022-10-04T14:46:49.548Z,2.30
2022-10-04T14:49:29.561Z,2.60
2022-10-04T14:52:14.865Z,2.33
2022-10-04T14:54:52.407Z,2.53
2022-10-04T14:57:40.070Z,2.50
2022-10-04T15:00:18.009Z,2.43
2022-10-04T15:03:16.511Z,2.43
2022-10-04T15:06:00.282Z,2.30
2022-10-04T15:09:06.629Z,2.70
2022-10-04T15:12:21.541Z,2.33
2022-10-04T15:15:07.250Z,2.57
2022-10-04T15:17:41.103Z,2.50
2022-10-04T15:20:22.995Z,2.37
2022-10-04T15:22:53.143Z,2.00
2022-10-04T15:25:41.999Z,2.67
2022-10-04T15:28:27.537Z,2.33
2022-10-04T15:31:03.540Z,2.57
2022-10-04T15:33:40.970Z,2.50
2022-10-04T15:36:28.461Z,2.67
2022-10-04T15:39:03.089Z,2.07
2022-10-04T15:41:37.997Z,2.47
2022-10-04T15:44:39.733Z,2.50
2022-10-04T15:47:21.461Z,2.57
2022-10-04T15:49:58.568Z,2.60
2022-10-04T15:52:54.183Z,2.20
2022-10-04T15:55:27.343Z,2.50
2022-10-04T15:58:21.404Z,2.60
2022-10-04T16:01:00.564Z,2.80
2022-10-04T16:03:40.609Z,2.50
2022-10-04T16:06:13.540Z,2.80
2022-10-04T16:09:00.491Z,2.60
2022-10-04T16:11:54.061Z,3.13
2022-10-04T16:15:15.187Z,2.87
2022-10-04T16:18:05.739Z,3.03
2022-10-04T16:21:06.069Z,2.47
2022-10-04T16:23:35.988Z,2.50
2022-10-04T16:26:05.988Z,2.80
2022-10-04T16:28:56.228Z,3.43
2022-10-04T16:31:48.399Z,2.90
2022-10-04T16:34:31.718Z,2.60
2022-10-04T16:37:13.118Z,2.47
2022-10-04T16:40:03.009Z,2.50
2022-10-04T16:42:49.006Z,2.97
2022-10-04T16:45:43.479Z,2.60
2022-10-04T16:48:35.570Z,2.60
2022-10-04T16:51:48.640Z,3.23
2022-10-04T16:54:36.865Z,3.10
2022-10-04T16:57:15.838Z,2.97
2022-10-04T16:59:51.464Z,3.47
2022-10-04T17:02:43.415Z,3.10
2022-10-04T17:05:59.807Z,3.90
2022-10-04T17:08:54.344Z,3.43
2022-10-04T17:11:43.977Z,2.90
2022-10-04T17:14:48.220Z,3.13
2022-10-04T17:17:24.194Z,3.40
2022-10-04T17:19:57.454Z,2.77
2022-10-04T17:22:40.992Z,3.00
2022-10-04T17:25:22.614Z,3.00
2022-10-04T17:27:56.306Z,2.90
2022-10-04T17:30:27.676Z,3.03
2022-10-04T17:33:24.113Z,3.27
2022-10-04T17:36:30.057Z,3.03
2022-10-04T17:39:08.502Z,3.17
2022-10-04T17:41:53.407Z,3.47
2022-10-04T17:44:37.608Z,3.23
2022-10-04T17:47:14.456Z,2.80
2022-10-04T17:50:15.555Z,3.00
2022-10-04T17:53:04.587Z,3.20
2022-10-04T17:55:45.912Z,3.00
2022-10-04T17:58:19.126Z,3.07
2022-10-04T18:00:53.707Z,2.87
2022-10-04T18:03:26.968Z,3.67
2022-10-04T18:05:59.181Z,2.93
2022-10-04T18:08:41.094Z,3.20
2022-10-04T18:11:18.505Z,3.27
2022-10-04T18:13:51.138Z,3.23
2022-10-04T18:16:27.530Z,3.37
2022-10-04T18:18:55.476Z,2.63
2022-10-04T18:21:27.668Z,3.07
2022-10-04T18:24:00.850Z,2.93
2022-10-04T18:26:31.460Z,3.13
2022-10-04T18:29:01.873Z,3.37
2022-10-04T18:31:48.954Z,3.60
2022-10-04T18:34:28.895Z,3.17
2022-10-04T18:37:06.234Z,3.07
2022-10-04T18:39:46.394Z,3.00
2022-10-04T18:42:21.478Z,2.90
2022-10-04T18:44:59.099Z,2.83
2022-10-04T18:47:33.942Z,3.17
2022-10-04T18:50:10.387Z,3.00
2022-10-04T18:52:47.647Z,2.80
2022-10-04T18:55:27.761Z,2.80
2022-10-04T18:58:21.673Z,2.73
2022-10-04T19:01:12.437Z,2.73
2022-10-04T19:03:49.307Z,2.70
2022-10-04T19:06:24.008Z,2.80
2022-10-04T19:09:01.661Z,2.90
2022-10-04T19:11:38.300Z,2.47
2022-10-04T19:14:19.773Z,3.23
2022-10-04T19:16:53.046Z,2.60
2022-10-04T19:19:40.687Z,2.70
2022-10-04T19:22:19.499Z,2.57
2022-10-04T19:25:11.705Z,2.00
2022-10-04T19:27:45.269Z,2.53
2022-10-04T19:30:18.918Z,2.53
2022-10-04T19:33:01.897Z,2.10
2022-10-04T19:35:42.916Z,2.37
2022-10-04T19:38:29.384Z,2.33
2022-10-04T19:41:04.729Z,2.77
2022-10-04T19:43:41.734Z,2.40
2022-10-04T19:46:16.136Z,2.40
2022-10-04T19:48:50.331Z,2.63
2022-10-04T19:51:28.241Z,2.23
2022-10-04T19:54:01.706Z,2.80
2022-10-04T19:56:36.839Z,2.30
2022-10-04T19:59:09.281Z,2.73
2022-10-04T20:01:38.680Z,2.77
2022-10-04T20:04:30.285Z,2.30
2022-10-04T20:07:00.967Z,1.97
2022-10-04T20:09:51.383Z,2.70
2022-10-04T20:12:37.584Z,2.57
2022-10-04T20:15:46.583Z,2.43
2022-10-04T20:18:52.709Z,2.50
2022-10-04T20:21:31.306Z,2.43
2022-10-04T20:24:01.702Z,2.70
2022-10-04T20:26:54.391Z,2.10
2022-10-04T20:30:05.212Z,2.70
2022-10-04T20:32:55.353Z,2.33
2022-10-04T20:36:09.626Z,2.23
2022-10-04T20:38:55.102Z,2.23
2022-10-04T20:42:03.354Z,2.17
2022-10-04T20:44:46.199Z,2.43
2022-10-04T20:47:23.981Z,2.33
2022-10-04T20:49:52.161Z,2.33
2022-10-04T20:52:22.421Z,2.40
2022-10-04T20:54:52.215Z,2.10
2022-10-04T20:57:23.826Z,2.13
2022-10-04T20:59:55.512Z,2.50
2022-10-04T21:02:24.721Z,2.13
2022-10-04T21:04:53.725Z,2.53
2022-10-04T21:07:23.305Z,2.67
2022-10-04T21:09:53.118Z,2.50
2022-10-04T21:12:31.218Z,2.80
2022-10-04T21:15:08.278Z,2.70
2022-10-04T21:17:38.315Z,2.50
2022-10-04T21:20:07.192Z,3.07
2022-10-04T21:22:37.369Z,3.07
2022-10-04T21:25:38.027Z,2.90
2022-10-04T21:31:04.031Z,3.40
2022-10-04T21:33:35.688Z,3.73
2022-10-04T21:36:04.391Z,2.73
2022-10-04T21:38:32.233Z,3.13
2022-10-04T21:40:59.990Z,3.13
2022-10-04T21:43:27.961Z,2.90
2022-10-04T21:45:55.826Z,2.50
2022-10-04T21:48:25.543Z,3.23
2022-10-04T21:50:55.681Z,3.07
2022-10-04T21:53:23.694Z,3.20
2022-10-04T21:55:51.402Z,3.20
2022-10-04T21:58:19.092Z,3.30
2022-10-04T22:00:47.048Z,3.50
2022-10-04T22:03:15.170Z,3.73
2022-10-04T22:05:44.197Z,3.80
2022-10-04T22:08:11.919Z,2.93
2022-10-04T22:10:40.043Z,2.93
2022-10-04T22:13:07.919Z,2.70
2022-10-04T22:15:35.915Z,2.87
2022-10-04T22:18:03.618Z,3.57
2022-10-04T22:20:31.502Z,3.10
2022-10-04T22:23:02.081Z,3.20
2022-10-04T22:25:29.797Z,3.10
2022-10-04T22:27:57.615Z,2.43
2022-10-04T22:30:27.951Z,2.97
2022-10-04T22:32:57.716Z,2.67
2022-10-04T22:35:25.958Z,3.13
2022-10-04T22:37:54.159Z,2.43
2022-10-04T22:40:25.617Z,2.23
2022-10-04T22:42:55.383Z,3.03
2022-10-04T22:45:25.341Z,2.93
2022-10-04T22:47:54.366Z,3.07
2022-10-04T22:50:33.407Z,2.90
2022-10-04T22:53:05.969Z,3.23
2022-10-04T22:55:35.545Z,2.90
2022-10-04T22:58:04.031Z,2.50
2022-10-04T23:00:31.788Z,3.37
2022-10-04T23:02:59.560Z,2.87
2022-10-04T23:05:28.744Z,2.97
2022-10-04T23:07:56.451Z,3.23
2022-10-04T23:10:24.229Z,3.60
2022-10-04T23:12:53.476Z,3.47
2022-10-04T23:15:21.935Z,3.53
2022-10-04T23:17:55.185Z,3.07
2022-10-04T23:20:23.555Z,3.27
2022-10-04T23:22:52.910Z,2.87
2022-10-04T23:25:22.511Z,2.90
2022-10-04T23:27:50.295Z,2.80
2022-10-04T23:30:21.204Z,3.00
2022-10-04T23:32:51.178Z,2.80
2022-10-04T23:35:23.456Z,3.00
2022-10-04T23:37:51.643Z,3.40
2022-10-04T23:40:22.815Z,3.23
2022-10-04T23:42:54.364Z,3.00
2022-10-04T23:45:24.900Z,3.03
2022-10-04T23:47:55.021Z,3.23
2022-10-04T23:50:25.661Z,3.10
2022-10-04T23:52:58.104Z,3.50
2022-10-04T23:55:30.035Z,2.83
2022-10-04T23:58:00.134Z,3.43
